Accueil
METAR-TAF:

METAR-TAF

Aéroports :

Aéroport Santander Seve Ballesteros

Santander, Espagne

latitude: 43-26N, longitude: 003-49W, altitude: 6 m

Observation

Le bulletin a été fait il y a 18 minutes, à 00:00 UTC
Vent calme
Température 7°C
Humidité 93%
Pression 1018 hPa
Visibilité: 6000 m

METAR: LEXJ 260000Z AUTO 00000KT 6000 NCD 07/06 Q1018

Heure: 01:18 (00:18 UTC)

Prévision

Le bulletin a été fait il y a 4 heures et 18 minutes, à 20:00 UTC
Prévision valable du 25 à 21 UTC au 26 à 21 UTC
Vent 4 kt de sud/sud-ouest
Visibilité 10 km ou plus
Nuages épars à une hauteur de 5000 ft
Probabilité 30% :
Temporairement
du 26 à 13 UTC au 26 à 17 UTC
Vent 10 kt de nord-est

TAF: LEXJ 252000Z 2521/2621 20004KT 9999 SCT050 TX16/2615Z TN04/2607Z PROB30 TEMPO 2613/2617 04010KT

Observations et prévisions météorologiques de plus de 4000 aéroports (messages METAR et TAF).

Les stations disponibles sont représentées par des disques jaunes et rouges sur la carte.

Passer la souris dessus pour voir le nom de la station.

Cliquer dessus pour voir les observations et prévisions météorologiques.

Pour changer de carte: cliquez sur les boutons verts avec une croix noire pour zoomer, sur le bouton vert avec un tiret pour effectuer un zoom arrière, ou sur les flèches vertes pour les cartes adjacentes.


METAR-TAF: